createdAt,value
2023-06-19T00:01:30.432Z,10.83
2023-06-19T00:03:56.781Z,10.37
2023-06-19T00:06:23.102Z,10.60
2023-06-19T00:08:49.369Z,10.97
2023-06-19T00:11:15.701Z,10.93
2023-06-19T00:13:42.090Z,10.93
2023-06-19T00:16:08.388Z,10.60
2023-06-19T00:18:40.916Z,10.67
2023-06-19T00:21:08.452Z,10.60
2023-06-19T00:23:35.311Z,10.33
2023-06-19T00:26:04.331Z,10.97
2023-06-19T00:28:31.258Z,11.30
2023-06-19T00:30:57.536Z,10.57
2023-06-19T00:33:23.832Z,11.10
2023-06-19T00:35:53.068Z,11.00
2023-06-19T00:38:20.174Z,11.23
2023-06-19T00:40:46.461Z,11.97
2023-06-19T00:43:12.842Z,11.40
2023-06-19T00:45:39.913Z,11.80
2023-06-19T00:48:06.386Z,12.00
2023-06-19T00:50:32.719Z,11.03
2023-06-19T00:52:59.631Z,11.57
2023-06-19T00:55:26.520Z,11.43
2023-06-19T00:57:54.199Z,11.53
2023-06-19T01:00:20.831Z,11.00
2023-06-19T01:02:47.687Z,10.67
2023-06-19T01:05:14.760Z,11.37
2023-06-19T01:07:57.550Z,11.23
2023-06-19T01:10:32.748Z,10.90
2023-06-19T01:13:06.961Z,11.10
2023-06-19T01:15:33.302Z,11.20
2023-06-19T01:17:59.965Z,11.33
2023-06-19T01:20:26.734Z,11.60
2023-06-19T01:22:53.032Z,11.07
2023-06-19T01:25:19.309Z,10.83
2023-06-19T01:27:45.884Z,11.13
2023-06-19T01:30:12.909Z,10.27
2023-06-19T01:32:42.587Z,11.03
2023-06-19T01:35:12.236Z,11.70
2023-06-19T01:37:39.400Z,11.07
2023-06-19T01:40:06.945Z,11.40
2023-06-19T01:42:35.122Z,11.23
2023-06-19T01:45:04.128Z,11.23
2023-06-19T01:47:30.552Z,12.50
2023-06-19T01:49:56.857Z,12.53
2023-06-19T01:52:23.218Z,11.77
2023-06-19T01:54:49.497Z,12.47
2023-06-19T01:57:15.784Z,11.93
2023-06-19T01:59:43.111Z,11.57
2023-06-19T02:02:09.469Z,11.80
2023-06-19T02:04:35.833Z,12.00
2023-06-19T02:07:02.144Z,12.63
2023-06-19T02:09:28.609Z,12.87
2023-06-19T02:11:54.937Z,12.27
2023-06-19T02:14:21.220Z,12.67
2023-06-19T02:16:47.522Z,13.07
2023-06-19T02:19:13.792Z,12.63
2023-06-19T02:21:40.234Z,12.83
2023-06-19T02:24:06.986Z,13.10
2023-06-19T02:26:33.426Z,13.80
2023-06-19T02:28:59.759Z,13.00
2023-06-19T02:31:26.051Z,12.87
2023-06-19T02:33:52.322Z,13.17
2023-06-19T02:36:21.675Z,13.07
2023-06-19T02:38:48.554Z,13.60
2023-06-19T02:41:14.952Z,12.90
2023-06-19T02:43:44.936Z,12.90
2023-06-19T02:46:13.291Z,12.93
2023-06-19T02:48:39.969Z,13.00
2023-06-19T02:51:06.367Z,13.87
2023-06-19T02:53:32.654Z,13.20
2023-06-19T02:55:59.409Z,13.10
2023-06-19T02:58:27.825Z,13.67
2023-06-19T03:00:54.551Z,13.17
2023-06-19T03:03:21.025Z,13.63
2023-06-19T03:05:47.508Z,12.93
2023-06-19T03:08:13.797Z,13.83
2023-06-19T03:10:40.083Z,13.10
2023-06-19T03:13:06.502Z,13.23
2023-06-19T03:15:32.819Z,13.73
2023-06-19T03:17:59.378Z,13.53
2023-06-19T03:20:25.874Z,14.40
2023-06-19T03:22:52.715Z,13.33
2023-06-19T03:25:21.022Z,14.20
2023-06-19T03:27:47.641Z,14.27
2023-06-19T03:30:14.055Z,14.10
2023-06-19T03:32:40.508Z,14.37
2023-06-19T03:35:06.897Z,14.27
2023-06-19T03:37:36.228Z,14.37
2023-06-19T03:40:04.275Z,14.57
2023-06-19T03:42:30.566Z,13.97
2023-06-19T03:44:56.845Z,14.43
2023-06-19T03:47:23.139Z,14.40
2023-06-19T03:49:49.659Z,14.27
2023-06-19T03:52:15.919Z,14.47
2023-06-19T03:54:42.423Z,14.03
2023-06-19T03:57:09.866Z,14.30
2023-06-19T03:59:36.167Z,14.77
2023-06-19T04:02:02.793Z,14.50
2023-06-19T04:04:29.126Z,14.93
2023-06-19T04:06:56.284Z,14.90
2023-06-19T04:09:22.601Z,14.73
2023-06-19T04:11:48.972Z,14.80
2023-06-19T04:14:15.313Z,14.33
2023-06-19T04:16:41.641Z,14.83
2023-06-19T04:19:07.984Z,14.87
2023-06-19T04:21:34.267Z,14.03
2023-06-19T04:24:00.641Z,13.63
2023-06-19T04:26:27.001Z,14.27
2023-06-19T04:28:53.287Z,13.23
2023-06-19T04:31:19.721Z,14.10
2023-06-19T04:33:46.456Z,13.87
2023-06-19T04:36:12.778Z,14.23
2023-06-19T04:38:39.081Z,13.43
2023-06-19T04:41:05.443Z,13.77
2023-06-19T04:43:31.742Z,12.93
2023-06-19T04:45:58.100Z,13.87
2023-06-19T04:48:26.122Z,13.57
2023-06-19T04:50:53.013Z,14.13
2023-06-19T04:53:19.314Z,14.10
2023-06-19T04:55:46.164Z,14.40
2023-06-19T04:58:12.508Z,14.53
2023-06-19T05:00:38.800Z,13.37
2023-06-19T05:03:05.160Z,14.13
2023-06-19T05:05:31.617Z,13.80
2023-06-19T05:07:58.130Z,13.90
2023-06-19T05:10:24.608Z,13.60
2023-06-19T05:12:51.195Z,13.47
2023-06-19T05:15:17.560Z,13.67
2023-06-19T05:17:43.954Z,13.80
2023-06-19T05:20:10.776Z,14.37
2023-06-19T05:22:38.193Z,13.73
2023-06-19T05:25:04.671Z,13.60
2023-06-19T05:27:30.982Z,13.83
2023-06-19T05:29:57.245Z,14.37
2023-06-19T05:32:23.601Z,14.10
2023-06-19T05:34:50.972Z,14.00
2023-06-19T05:37:17.636Z,14.20
2023-06-19T05:39:43.901Z,14.57
2023-06-19T05:42:10.179Z,14.43
2023-06-19T05:44:36.636Z,13.93
2023-06-19T05:47:02.938Z,14.23
2023-06-19T05:49:30.186Z,14.27
2023-06-19T05:52:00.055Z,13.63
2023-06-19T05:54:26.807Z,13.30
2023-06-19T05:56:53.472Z,14.00
2023-06-19T05:59:19.757Z,14.07
2023-06-19T06:01:46.077Z,13.33
2023-06-19T06:04:12.379Z,14.07
2023-06-19T06:06:38.677Z,14.07
2023-06-19T06:09:05.919Z,14.00
2023-06-19T06:11:32.260Z,14.40
2023-06-19T06:13:58.573Z,13.47
2023-06-19T06:16:24.957Z,13.73
2023-06-19T06:18:51.296Z,14.13
2023-06-19T06:21:17.632Z,14.43
2023-06-19T06:23:45.810Z,14.93
2023-06-19T06:26:12.159Z,14.57
2023-06-19T06:28:39.706Z,14.60
2023-06-19T06:31:06.007Z,14.83
2023-06-19T06:33:32.256Z,14.23
2023-06-19T06:35:58.903Z,15.17
2023-06-19T06:38:25.200Z,14.80
2023-06-19T06:40:52.136Z,14.67
2023-06-19T06:43:18.584Z,14.27
2023-06-19T06:45:44.914Z,14.57
2023-06-19T06:48:11.317Z,14.50
2023-06-19T06:50:37.797Z,14.23
2023-06-19T06:53:04.144Z,14.67
2023-06-19T06:55:30.433Z,14.67
2023-06-19T06:57:56.730Z,14.30
2023-06-19T07:00:23.191Z,14.93
2023-06-19T07:02:51.506Z,14.03
2023-06-19T07:05:18.139Z,15.60
2023-06-19T07:07:44.406Z,14.53
2023-06-19T07:10:11.165Z,14.70
2023-06-19T07:12:45.080Z,14.67
2023-06-19T07:15:12.127Z,14.37
2023-06-19T07:17:38.440Z,13.80
2023-06-19T07:20:05.455Z,14.27
2023-06-19T07:22:31.793Z,13.67
2023-06-19T07:24:58.044Z,14.00
2023-06-19T07:27:28.527Z,14.00
2023-06-19T07:29:54.805Z,14.97
2023-06-19T07:32:21.744Z,13.70
2023-06-19T07:34:48.148Z,13.57
2023-06-19T07:37:18.626Z,13.50
2023-06-19T07:39:48.569Z,13.60
2023-06-19T07:42:15.576Z,13.30
2023-06-19T07:44:42.085Z,13.47
2023-06-19T07:47:09.035Z,13.33
2023-06-19T07:49:35.636Z,12.67
2023-06-19T07:52:02.008Z,13.37
2023-06-19T07:54:28.273Z,12.60
2023-06-19T07:56:54.589Z,12.53
2023-06-19T07:59:20.898Z,12.93
2023-06-19T08:01:47.185Z,12.07
2023-06-19T08:04:13.577Z,12.33
2023-06-19T08:06:39.917Z,11.80
2023-06-19T08:09:06.226Z,11.70
2023-06-19T08:11:32.599Z,12.03
2023-06-19T08:13:58.919Z,12.07
2023-06-19T08:16:26.295Z,12.30
2023-06-19T08:18:52.923Z,12.00
2023-06-19T08:21:19.681Z,11.70
2023-06-19T08:23:46.150Z,12.37
2023-06-19T08:26:12.468Z,12.97
2023-06-19T08:28:38.794Z,12.70
2023-06-19T08:31:05.065Z,12.20
2023-06-19T08:33:31.348Z,12.53
2023-06-19T08:35:57.640Z,12.83
2023-06-19T08:38:23.928Z,11.97
2023-06-19T08:40:51.180Z,12.13
2023-06-19T08:43:17.592Z,11.80
2023-06-19T08:45:43.893Z,11.93
2023-06-19T08:48:14.346Z,11.37
2023-06-19T08:50:40.645Z,12.00
2023-06-19T08:53:06.921Z,12.17
2023-06-19T08:55:33.238Z,12.60
2023-06-19T08:57:59.500Z,12.17
2023-06-19T09:00:30.360Z,12.53
2023-06-19T09:03:12.392Z,12.50
2023-06-19T09:05:41.828Z,12.50
2023-06-19T09:08:14.255Z,12.80
2023-06-19T09:10:40.527Z,12.17
2023-06-19T09:13:06.968Z,12.80
2023-06-19T09:15:35.568Z,11.97
2023-06-19T09:18:05.834Z,13.17
2023-06-19T09:20:34.922Z,12.27
2023-06-19T09:23:01.442Z,12.70
2023-06-19T09:25:30.943Z,12.33
2023-06-19T09:27:57.728Z,12.07
2023-06-19T09:30:24.330Z,12.17
2023-06-19T09:32:50.812Z,11.23
2023-06-19T09:35:17.245Z,12.27
2023-06-19T09:37:46.025Z,12.83
2023-06-19T09:40:12.525Z,12.27
2023-06-19T09:42:43.952Z,12.77
2023-06-19T09:45:11.750Z,12.47
2023-06-19T09:47:39.737Z,11.53
2023-06-19T09:50:07.268Z,12.43
2023-06-19T09:52:34.737Z,12.13
2023-06-19T09:55:03.707Z,13.23
2023-06-19T09:57:30.496Z,12.67
2023-06-19T09:59:57.854Z,12.27
2023-06-19T10:02:26.709Z,12.07
2023-06-19T10:04:54.349Z,12.70
2023-06-19T10:07:24.256Z,12.80
2023-06-19T10:09:57.696Z,12.77
2023-06-19T10:12:34.415Z,12.47
2023-06-19T10:15:08.292Z,12.73
2023-06-19T10:17:34.611Z,12.17
2023-06-19T10:20:00.910Z,12.67
2023-06-19T10:22:33.482Z,12.33
2023-06-19T10:24:59.811Z,12.83
2023-06-19T10:27:26.446Z,12.53
2023-06-19T10:29:59.588Z,12.03
2023-06-19T10:32:37.932Z,13.03
2023-06-19T10:35:11.594Z,12.87
2023-06-19T10:37:37.974Z,12.43
2023-06-19T10:40:09.146Z,11.97
2023-06-19T10:42:35.475Z,12.07
2023-06-19T10:45:06.866Z,12.50
2023-06-19T10:47:33.759Z,13.80
2023-06-19T10:50:00.159Z,12.93
2023-06-19T10:52:28.928Z,12.87
2023-06-19T10:54:55.645Z,12.17
2023-06-19T10:57:28.770Z,11.73
2023-06-19T10:59:55.093Z,12.40
2023-06-19T11:02:22.255Z,11.63
2023-06-19T11:04:48.684Z,12.10
2023-06-19T11:07:14.998Z,11.70
2023-06-19T11:09:43.954Z,11.57
2023-06-19T11:12:11.409Z,11.50
2023-06-19T11:14:40.906Z,11.40
2023-06-19T11:17:07.311Z,11.40
2023-06-19T11:19:37.143Z,11.60
2023-06-19T11:22:04.159Z,11.10
2023-06-19T11:24:30.874Z,11.00
2023-06-19T11:26:59.651Z,11.33
2023-06-19T11:29:27.041Z,11.27
2023-06-19T11:31:55.392Z,11.47
2023-06-19T11:34:31.875Z,11.67
2023-06-19T11:36:58.165Z,11.27
2023-06-19T11:39:24.587Z,11.87
2023-06-19T11:41:54.782Z,11.17
2023-06-19T11:44:21.278Z,11.77
2023-06-19T11:46:47.955Z,12.10
2023-06-19T11:49:15.437Z,11.30
2023-06-19T11:51:41.863Z,12.03
2023-06-19T11:54:09.559Z,11.13
2023-06-19T11:56:39.402Z,11.83
2023-06-19T11:59:05.853Z,11.13
2023-06-19T12:01:36.078Z,10.43
2023-06-19T12:04:03.097Z,10.73
2023-06-19T12:06:30.334Z,10.00
2023-06-19T12:08:56.631Z,10.43
2023-06-19T12:11:23.206Z,9.90
2023-06-19T12:13:49.826Z,9.80
2023-06-19T12:16:16.175Z,10.57
2023-06-19T12:18:42.568Z,9.83
2023-06-19T12:21:17.765Z,9.60
2023-06-19T12:23:51.491Z,9.70
2023-06-19T12:26:17.792Z,10.40
2023-06-19T12:28:44.069Z,10.00
2023-06-19T12:31:10.860Z,10.37
2023-06-19T12:33:39.982Z,9.37
2023-06-19T12:36:06.574Z,10.30
2023-06-19T12:38:32.878Z,10.60
2023-06-19T12:40:59.169Z,10.27
2023-06-19T12:43:25.538Z,10.37
2023-06-19T12:45:51.867Z,9.63
2023-06-19T12:48:18.401Z,9.57
2023-06-19T12:50:44.722Z,9.83
2023-06-19T12:53:12.677Z,10.17
2023-06-19T12:55:48.802Z,9.87
2023-06-19T12:58:18.698Z,9.80
2023-06-19T13:00:44.963Z,10.20
2023-06-19T13:03:11.312Z,10.43
2023-06-19T13:05:37.670Z,10.33
2023-06-19T13:08:03.962Z,10.57
2023-06-19T13:10:30.264Z,10.47
2023-06-19T13:12:59.130Z,10.20
2023-06-19T13:15:25.749Z,11.13
2023-06-19T13:17:52.068Z,10.40
2023-06-19T13:20:18.368Z,11.33
2023-06-19T13:22:44.649Z,11.40
2023-06-19T13:25:10.944Z,10.63
2023-06-19T13:27:37.277Z,10.83
2023-06-19T13:30:03.708Z,11.13
2023-06-19T13:32:30.116Z,11.50
2023-06-19T13:34:57.229Z,11.90
2023-06-19T13:37:24.559Z,11.90
2023-06-19T13:39:50.863Z,11.40
2023-06-19T13:42:17.228Z,10.87
2023-06-19T13:44:43.590Z,11.60
2023-06-19T13:47:09.936Z,11.50
2023-06-19T13:49:36.235Z,11.50
2023-06-19T13:52:02.549Z,12.48
2023-06-19T13:54:28.858Z,11.20
2023-06-19T13:56:55.211Z,11.98
2023-06-19T13:59:21.534Z,12.23
2023-06-19T14:01:47.803Z,11.45
2023-06-19T14:04:14.101Z,12.00
2023-06-19T14:06:43.012Z,11.75
2023-06-19T14:09:09.582Z,11.30
2023-06-19T14:11:36.091Z,10.68
2023-06-19T14:14:02.519Z,10.80
2023-06-19T14:16:28.860Z,10.77
2023-06-19T14:18:55.158Z,11.02
2023-06-19T14:21:22.740Z,11.20
2023-06-19T14:23:49.083Z,10.80
2023-06-19T14:26:15.402Z,10.73
2023-06-19T14:28:41.725Z,11.20
2023-06-19T14:31:08.142Z,11.32
2023-06-19T14:33:36.540Z,11.38
2023-06-19T14:36:03.982Z,11.10
2023-06-19T14:38:35.013Z,11.27
2023-06-19T14:41:02.547Z,11.77
2023-06-19T14:43:31.003Z,11.77
2023-06-19T14:45:59.676Z,11.40
2023-06-19T14:48:26.063Z,10.75
2023-06-19T14:50:52.410Z,11.30
2023-06-19T14:53:18.678Z,11.00
2023-06-19T14:55:46.905Z,11.70
2023-06-19T14:58:14.597Z,11.05
2023-06-19T15:00:41.829Z,10.65
2023-06-19T15:03:08.510Z,10.88
2023-06-19T15:05:34.929Z,11.48
2023-06-19T15:08:02.248Z,10.75
2023-06-19T15:10:28.661Z,10.75
2023-06-19T15:12:55.071Z,10.45
2023-06-19T15:15:21.560Z,10.38
2023-06-19T15:17:48.029Z,11.27
2023-06-19T15:20:17.591Z,10.05
2023-06-19T15:22:43.894Z,9.93
2023-06-19T15:25:10.385Z,9.65
2023-06-19T15:27:36.705Z,10.40
2023-06-19T15:30:03.154Z,10.40
2023-06-19T15:32:29.604Z,10.88
2023-06-19T15:34:55.967Z,9.48
2023-06-19T15:37:22.307Z,9.57
2023-06-19T15:39:48.653Z,8.52
2023-06-19T15:42:15.053Z,8.70
2023-06-19T15:44:41.322Z,8.90
2023-06-19T15:47:07.897Z,9.50
2023-06-19T15:49:34.534Z,9.15
2023-06-19T15:52:00.908Z,9.43
2023-06-19T15:54:27.172Z,9.20
2023-06-19T15:56:53.488Z,8.88
2023-06-19T15:59:20.543Z,9.80
2023-06-19T16:01:46.881Z,9.75
2023-06-19T16:04:13.502Z,10.40
2023-06-19T16:06:42.328Z,9.50
2023-06-19T16:09:08.814Z,10.20
2023-06-19T16:11:35.194Z,9.88
2023-06-19T16:14:01.469Z,10.00
2023-06-19T16:16:27.839Z,9.63
2023-06-19T16:18:54.180Z,10.50
2023-06-19T16:21:20.466Z,9.93
2023-06-19T16:23:46.765Z,9.63
2023-06-19T16:26:13.056Z,9.60
2023-06-19T16:28:39.336Z,10.15
2023-06-19T16:31:06.505Z,8.88
2023-06-19T16:33:32.853Z,8.90
2023-06-19T16:35:59.123Z,9.23
2023-06-19T16:38:25.415Z,9.25
2023-06-19T16:40:51.692Z,9.27
2023-06-19T16:43:17.988Z,9.20
2023-06-19T16:45:44.270Z,9.57
2023-06-19T16:48:10.627Z,9.07
2023-06-19T16:50:36.946Z,9.25
2023-06-19T16:53:04.190Z,9.23
2023-06-19T16:55:30.553Z,9.25
2023-06-19T16:57:57.126Z,8.60
2023-06-19T17:00:24.180Z,8.75
2023-06-19T17:02:55.696Z,9.00
2023-06-19T17:05:22.861Z,8.52
2023-06-19T17:07:49.237Z,9.30
2023-06-19T17:10:18.527Z,8.40
2023-06-19T17:12:45.271Z,8.77
2023-06-19T17:15:11.849Z,9.20
2023-06-19T17:17:38.215Z,8.93
2023-06-19T17:20:06.032Z,8.52
2023-06-19T17:22:32.425Z,9.60
2023-06-19T17:24:58.754Z,8.07
2023-06-19T17:27:25.159Z,8.20
2023-06-19T17:29:51.454Z,8.63
2023-06-19T17:32:17.871Z,8.75
2023-06-19T17:34:44.243Z,8.25
2023-06-19T17:37:10.533Z,8.55
2023-06-19T17:39:36.805Z,8.45
2023-06-19T17:42:03.177Z,8.57
2023-06-19T17:44:31.385Z,9.15
2023-06-19T17:46:57.838Z,9.13
2023-06-19T17:49:24.226Z,8.75
2023-06-19T17:51:50.644Z,8.63
2023-06-19T17:54:18.062Z,8.88
2023-06-19T17:56:45.595Z,9.73
2023-06-19T17:59:12.714Z,9.50
2023-06-19T18:01:39.048Z,9.80
2023-06-19T18:04:05.380Z,9.83
2023-06-19T18:06:31.688Z,11.00
2023-06-19T18:08:58.010Z,10.20
2023-06-19T18:11:24.387Z,10.90
2023-06-19T18:13:50.666Z,10.47
2023-06-19T18:16:16.979Z,11.10
2023-06-19T18:18:43.372Z,11.10
2023-06-19T18:21:09.906Z,10.90
2023-06-19T18:23:36.238Z,11.40
2023-06-19T18:26:02.613Z,11.02
2023-06-19T18:28:28.884Z,11.30
2023-06-19T18:30:55.154Z,12.60
2023-06-19T18:33:21.443Z,11.70
2023-06-19T18:35:47.791Z,11.80
2023-06-19T18:38:14.293Z,12.07
2023-06-19T18:40:42.408Z,12.20
2023-06-19T18:43:08.925Z,12.05
2023-06-19T18:45:35.305Z,12.90
2023-06-19T18:48:01.693Z,12.63
2023-06-19T18:50:28.212Z,12.53
2023-06-19T18:52:55.654Z,12.70
2023-06-19T18:55:21.967Z,13.23
2023-06-19T18:57:49.730Z,11.97
2023-06-19T19:00:16.779Z,13.20
2023-06-19T19:02:43.152Z,12.73
2023-06-19T19:05:09.627Z,12.97
2023-06-19T19:07:35.947Z,12.77
2023-06-19T19:10:02.310Z,12.63
2023-06-19T19:12:28.648Z,12.50
2023-06-19T19:14:54.953Z,12.83
2023-06-19T19:17:21.375Z,12.20
2023-06-19T19:19:47.738Z,13.83
2023-06-19T19:22:14.144Z,12.50
2023-06-19T19:24:40.476Z,13.23
2023-06-19T19:27:07.100Z,13.60
2023-06-19T19:29:33.466Z,13.00
2023-06-19T19:31:59.775Z,14.00
2023-06-19T19:34:26.355Z,13.83
2023-06-19T19:36:52.938Z,13.50
2023-06-19T19:39:19.243Z,13.67
2023-06-19T19:41:46.814Z,13.07
2023-06-19T19:44:13.242Z,14.00
2023-06-19T19:46:40.261Z,13.80
2023-06-19T19:49:06.952Z,14.47
2023-06-19T19:51:33.402Z,14.23
2023-06-19T19:53:59.689Z,12.97
2023-06-19T19:56:26.028Z,13.93
2023-06-19T19:58:52.486Z,12.77
2023-06-19T20:01:18.870Z,13.73
2023-06-19T20:03:46.680Z,13.60
2023-06-19T20:06:13.083Z,13.90
2023-06-19T20:08:42.641Z,13.63
2023-06-19T20:11:10.080Z,13.57
2023-06-19T20:13:36.430Z,14.33
2023-06-19T20:16:02.796Z,13.80
2023-06-19T20:18:29.149Z,13.53
2023-06-19T20:20:55.442Z,13.77
2023-06-19T20:23:21.751Z,13.83
2023-06-19T20:25:48.440Z,14.60
2023-06-19T20:28:14.758Z,14.43
2023-06-19T20:30:41.038Z,14.37
2023-06-19T20:33:07.384Z,14.37
2023-06-19T20:35:33.740Z,14.20
2023-06-19T20:38:00.527Z,14.07
2023-06-19T20:40:28.620Z,14.40
2023-06-19T20:42:55.120Z,14.07
2023-06-19T20:45:24.930Z,14.30
2023-06-19T20:47:53.232Z,14.40
2023-06-19T20:50:20.270Z,14.73
2023-06-19T20:52:46.613Z,14.83
2023-06-19T20:55:14.202Z,15.03
2023-06-19T20:57:40.511Z,15.27
2023-06-19T21:00:11.103Z,14.80
2023-06-19T21:02:40.936Z,14.33
2023-06-19T21:05:09.720Z,13.93
2023-06-19T21:07:36.012Z,15.07
2023-06-19T21:10:02.308Z,14.53
2023-06-19T21:12:28.643Z,14.60
2023-06-19T21:14:56.101Z,14.37
2023-06-19T21:17:22.653Z,14.20
2023-06-19T21:19:49.112Z,14.73
2023-06-19T21:22:15.423Z,14.67
2023-06-19T21:24:41.849Z,14.83
2023-06-19T21:27:08.450Z,14.70
2023-06-19T21:29:34.799Z,15.27
2023-06-19T21:32:01.065Z,15.50
2023-06-19T21:34:27.382Z,15.23
2023-06-19T21:36:53.851Z,15.00
2023-06-19T21:39:20.124Z,15.87
2023-06-19T21:41:46.454Z,15.97
2023-06-19T21:44:12.734Z,15.43
2023-06-19T21:46:39.193Z,14.93
2023-06-19T21:49:05.592Z,14.90
2023-06-19T21:51:32.040Z,15.73
2023-06-19T21:53:58.345Z,15.23
2023-06-19T21:56:24.735Z,15.10
2023-06-19T21:58:51.128Z,15.13
2023-06-19T22:01:17.450Z,15.33
2023-06-19T22:03:43.935Z,16.03
2023-06-19T22:06:10.409Z,16.67
2023-06-19T22:08:42.604Z,16.23
2023-06-19T22:11:09.838Z,15.87
2023-06-19T22:13:36.247Z,15.90
2023-06-19T22:16:03.156Z,15.00
2023-06-19T22:18:29.503Z,15.40
2023-06-19T22:20:55.781Z,17.33
2023-06-19T22:23:22.101Z,16.67
2023-06-19T22:25:48.920Z,16.40
2023-06-19T22:28:15.258Z,16.97
2023-06-19T22:30:41.520Z,16.57
2023-06-19T22:33:08.908Z,16.07
2023-06-19T22:35:35.283Z,16.20
2023-06-19T22:38:01.582Z,16.63
2023-06-19T22:40:28.086Z,16.97
2023-06-19T22:42:54.538Z,16.73
2023-06-19T22:45:21.839Z,17.23
2023-06-19T22:47:50.814Z,17.30
2023-06-19T22:50:17.336Z,17.20
2023-06-19T22:52:43.966Z,17.70
2023-06-19T22:55:10.767Z,16.40
2023-06-19T22:57:37.148Z,16.40
2023-06-19T23:00:08.794Z,17.20
2023-06-19T23:02:35.265Z,17.33
2023-06-19T23:05:01.705Z,16.47
2023-06-19T23:07:31.931Z,16.57
2023-06-19T23:09:59.388Z,16.77
2023-06-19T23:12:25.733Z,17.40
2023-06-19T23:14:52.070Z,16.80
2023-06-19T23:17:18.531Z,17.10
2023-06-19T23:19:44.882Z,16.63
2023-06-19T23:22:11.228Z,17.50
2023-06-19T23:24:37.624Z,17.13
2023-06-19T23:27:04.271Z,16.83
2023-06-19T23:29:33.419Z,17.50
2023-06-19T23:32:00.614Z,16.03
2023-06-19T23:34:27.261Z,16.73
2023-06-19T23:36:54.037Z,16.93
2023-06-19T23:39:20.346Z,18.13
2023-06-19T23:41:46.663Z,17.37
2023-06-19T23:44:12.952Z,17.17
2023-06-19T23:46:40.126Z,17.30
2023-06-19T23:49:06.431Z,17.30
2023-06-19T23:51:32.740Z,17.87
2023-06-19T23:53:59.475Z,17.63
2023-06-19T23:56:25.764Z,18.23
2023-06-19T23:58:52.043Z,18.07
